createdAt,value
2023-04-12T00:00:29.600Z,2519.00
2023-04-12T00:01:29.633Z,2516.00
2023-04-12T00:02:29.785Z,2512.00
2023-04-12T00:03:29.860Z,2508.00
2023-04-12T00:04:29.921Z,2507.00
2023-04-12T00:05:29.807Z,2503.00
2023-04-12T00:06:29.851Z,2500.00
2023-04-12T00:07:29.900Z,2500.00
2023-04-12T00:08:29.947Z,2499.00
2023-04-12T00:09:29.992Z,2500.00
2023-04-12T00:10:30.031Z,2501.00
2023-04-12T00:11:30.079Z,2502.00
2023-04-12T00:12:30.131Z,2500.00
2023-04-12T00:13:30.175Z,2500.00
2023-04-12T00:14:30.226Z,2499.00
2023-04-12T00:15:30.263Z,2494.00
2023-04-12T00:16:30.330Z,2493.00
2023-04-12T00:17:30.397Z,2493.00
2023-04-12T00:18:30.419Z,2493.00
2023-04-12T00:19:30.491Z,2492.00
2023-04-12T00:20:30.545Z,2486.00
2023-04-12T00:21:30.573Z,2481.00
2023-04-12T00:22:30.630Z,2481.00
2023-04-12T00:23:30.672Z,2482.00
2023-04-12T00:24:30.730Z,2480.00
2023-04-12T00:25:30.780Z,2471.00
2023-04-12T00:26:30.816Z,2466.00
2023-04-12T00:27:30.862Z,2462.00
2023-04-12T00:28:30.914Z,2460.00
2023-04-12T00:29:30.971Z,2455.00
2023-04-12T00:30:31.004Z,2458.00
2023-04-12T00:31:31.086Z,2460.00
2023-04-12T00:32:31.148Z,2462.00
2023-04-12T00:33:31.152Z,2466.00
2023-04-12T00:34:31.187Z,2467.00
2023-04-12T00:35:31.295Z,2463.00
2023-04-12T00:36:31.287Z,2465.00
2023-04-12T00:37:31.334Z,2464.00
2023-04-12T00:38:31.381Z,2458.00
2023-04-12T00:39:31.432Z,2456.00
2023-04-12T00:40:31.477Z,2454.00
2023-04-12T00:41:31.535Z,2452.00
2023-04-12T00:42:31.573Z,2451.00
2023-04-12T00:43:31.628Z,2447.00
2023-04-12T00:44:31.671Z,2446.00
2023-04-12T00:45:31.716Z,2446.00
2023-04-12T00:46:31.821Z,2445.00
2023-04-12T00:47:31.830Z,2443.00
2023-04-12T00:48:31.882Z,2444.00
2023-04-12T00:49:31.907Z,2442.00
2023-04-12T00:50:31.961Z,2441.00
2023-04-12T00:51:32.019Z,2442.00
2023-04-12T00:52:32.056Z,2444.00
2023-04-12T00:53:32.118Z,2448.00
2023-04-12T00:54:32.138Z,2446.00
2023-04-12T00:55:32.196Z,2440.00
2023-04-12T00:56:32.253Z,2436.00
2023-04-12T00:57:32.348Z,2432.00
2023-04-12T00:58:32.343Z,2429.00
2023-04-12T00:59:32.405Z,2428.00
2023-04-12T01:00:32.465Z,2427.00
2023-04-12T01:01:32.510Z,2426.00
2023-04-12T01:02:32.721Z,2422.00
2023-04-12T01:03:32.817Z,2420.00
2023-04-12T01:04:32.644Z,2422.00
2023-04-12T01:05:32.706Z,2423.00
2023-04-12T01:06:32.748Z,2420.00
2023-04-12T01:07:32.809Z,2419.00
2023-04-12T01:08:32.874Z,2424.00
2023-04-12T01:09:32.895Z,2423.00
2023-04-12T01:10:32.942Z,2422.00
2023-04-12T01:11:33.012Z,2417.00
2023-04-12T01:12:33.059Z,2412.00
2023-04-12T01:13:33.126Z,2409.00
2023-04-12T01:14:33.159Z,2405.00
2023-04-12T01:15:33.202Z,2403.00
2023-04-12T01:16:33.306Z,2399.00
2023-04-12T01:17:33.308Z,2402.00
2023-04-12T01:18:33.363Z,2400.00
2023-04-12T01:19:33.419Z,2400.00
2023-04-12T01:20:33.458Z,2400.00
2023-04-12T01:21:33.506Z,2398.00
2023-04-12T01:22:33.554Z,2396.00
2023-04-12T01:23:33.622Z,2390.00
2023-04-12T01:24:33.674Z,2388.00
2023-04-12T01:25:33.700Z,2389.00
2023-04-12T01:26:33.762Z,2393.00
2023-04-12T01:27:33.800Z,2392.00
2023-04-12T01:28:33.849Z,2394.00
2023-04-12T01:29:33.904Z,2388.00
2023-04-12T01:30:33.952Z,2386.00
2023-04-12T01:31:34.081Z,2385.00
2023-04-12T01:32:34.080Z,2386.00
2023-04-12T01:33:34.094Z,2384.00
2023-04-12T01:34:34.144Z,2382.00
2023-04-12T01:35:35.440Z,2381.00
2023-04-12T01:36:34.252Z,2382.00
2023-04-12T01:37:34.278Z,2380.00
2023-04-12T01:38:34.320Z,2382.00
2023-04-12T01:39:34.374Z,2381.00
2023-04-12T01:40:34.414Z,2382.00
2023-04-12T01:41:34.467Z,2381.00
2023-04-12T01:42:34.518Z,2385.00
2023-04-12T01:43:34.560Z,2387.00
2023-04-12T01:44:34.609Z,2382.00
2023-04-12T01:45:34.737Z,2379.00
2023-04-12T01:46:34.696Z,2375.00
2023-04-12T01:47:34.775Z,2373.00
2023-04-12T01:48:34.788Z,2374.00
2023-04-12T01:49:34.822Z,2375.00
2023-04-12T01:50:34.868Z,2372.00
2023-04-12T01:51:34.994Z,2371.00
2023-04-12T01:52:34.956Z,2369.00
2023-04-12T01:53:35.004Z,2367.00
2023-04-12T01:54:35.050Z,2364.00
2023-04-12T01:55:35.077Z,2363.00
2023-04-12T01:56:35.114Z,2364.00
2023-04-12T01:57:35.157Z,2365.00
2023-04-12T01:58:35.195Z,2361.00
2023-04-12T01:59:35.234Z,2360.00
2023-04-12T02:00:35.290Z,2360.00
2023-04-12T02:01:35.469Z,2364.00
2023-04-12T02:02:35.523Z,2362.00
2023-04-12T02:03:35.493Z,2362.00
2023-04-12T02:04:35.440Z,2363.00
2023-04-12T02:05:35.484Z,2363.00
2023-04-12T02:06:35.536Z,2361.00
2023-04-12T02:07:35.565Z,2358.00
2023-04-12T02:08:35.609Z,2349.00
2023-04-12T02:09:35.636Z,2346.00
2023-04-12T02:10:35.680Z,2343.00
2023-04-12T02:11:35.733Z,2340.00
2023-04-12T02:12:35.764Z,2345.00
2023-04-12T02:13:35.816Z,2344.00
2023-04-12T02:14:35.873Z,2344.00
2023-04-12T02:15:35.884Z,2342.00
2023-04-12T02:16:35.973Z,2345.00
2023-04-12T02:17:35.975Z,2344.00
2023-04-12T02:18:35.987Z,2342.00
2023-04-12T02:19:36.030Z,2340.00
2023-04-12T02:20:36.086Z,2336.00
2023-04-12T02:21:36.107Z,2330.00
2023-04-12T02:22:36.138Z,2329.00
2023-04-12T02:23:36.174Z,2332.00
2023-04-12T02:24:36.217Z,2332.00
2023-04-12T02:25:36.252Z,2334.00
2023-04-12T02:26:36.304Z,2336.00
2023-04-12T02:27:36.337Z,2337.00
2023-04-12T02:28:36.563Z,2337.00
2023-04-12T02:29:36.386Z,2341.00
2023-04-12T02:30:36.441Z,2335.00
2023-04-12T02:31:36.461Z,2333.00
2023-04-12T02:32:36.529Z,2332.00
2023-04-12T02:33:36.536Z,2335.00
2023-04-12T02:34:36.768Z,2336.00
2023-04-12T02:35:36.636Z,2335.00
2023-04-12T02:36:36.633Z,2331.00
2023-04-12T02:37:36.664Z,2332.00
2023-04-12T02:38:36.702Z,2330.00
2023-04-12T02:39:36.727Z,2331.00
2023-04-12T02:40:36.769Z,2330.00
2023-04-12T02:41:36.802Z,2327.00
2023-04-12T02:42:36.845Z,2326.00
2023-04-12T02:43:36.874Z,2320.00
2023-04-12T02:44:36.915Z,2319.00
2023-04-12T02:45:36.951Z,2316.00
2023-04-12T02:46:37.012Z,2318.00
2023-04-12T02:47:37.016Z,2310.00
2023-04-12T02:48:37.047Z,2307.00
2023-04-12T02:49:37.091Z,2309.00
2023-04-12T02:50:37.122Z,2310.00
2023-04-12T02:51:37.170Z,2306.00
2023-04-12T02:52:37.202Z,2302.00
2023-04-12T02:53:37.224Z,2299.00
2023-04-12T02:54:37.267Z,2301.00
2023-04-12T02:55:37.306Z,2303.00
2023-04-12T02:56:37.350Z,2300.00
2023-04-12T02:57:37.382Z,2300.00
2023-04-12T02:58:37.408Z,2302.00
2023-04-12T02:59:37.447Z,2306.00
2023-04-12T03:00:37.474Z,2303.00
2023-04-12T03:01:37.577Z,2301.00
2023-04-12T03:02:37.722Z,2301.00
2023-04-12T03:03:37.706Z,2298.00
2023-04-12T03:04:37.616Z,2298.00
2023-04-12T03:05:37.647Z,2297.00
2023-04-12T03:06:37.686Z,2298.00
2023-04-12T03:07:37.726Z,2299.00
2023-04-12T03:08:37.737Z,2303.00
2023-04-12T03:09:37.773Z,2301.00
2023-04-12T03:10:37.806Z,2300.00
2023-04-12T03:11:37.822Z,2301.00
2023-04-12T03:12:37.865Z,2303.00
2023-04-12T03:13:37.901Z,2301.00
2023-04-12T03:14:37.937Z,2297.00
2023-04-12T03:15:37.972Z,2294.00
2023-04-12T03:16:37.998Z,2292.00
2023-04-12T03:17:38.077Z,2292.00
2023-04-12T03:18:38.051Z,2286.00
2023-04-12T03:19:38.080Z,2283.00
2023-04-12T03:20:38.116Z,2280.00
2023-04-12T03:21:38.159Z,2279.00
2023-04-12T03:22:38.188Z,2276.00
2023-04-12T03:23:38.207Z,2273.00
2023-04-12T03:24:38.238Z,2272.00
2023-04-12T03:25:38.280Z,2272.00
2023-04-12T03:26:38.303Z,2276.00
2023-04-12T03:27:38.330Z,2273.00
2023-04-12T03:28:38.364Z,2272.00
2023-04-12T03:29:38.395Z,2271.00
2023-04-12T03:30:38.429Z,2270.00
2023-04-12T03:31:38.593Z,2266.00
2023-04-12T03:32:38.510Z,2268.00
2023-04-12T03:33:38.531Z,2267.00
2023-04-12T03:34:38.560Z,2266.00
2023-04-12T03:35:38.637Z,2261.00
2023-04-12T03:36:38.633Z,2262.00
2023-04-12T03:37:38.646Z,2262.00
2023-04-12T03:38:38.674Z,2262.00
2023-04-12T03:39:38.694Z,2263.00
2023-04-12T03:40:38.710Z,2262.00
2023-04-12T03:41:38.760Z,2259.00
2023-04-12T03:42:38.778Z,2257.00
2023-04-12T03:43:38.809Z,2251.00
2023-04-12T03:44:38.829Z,2249.00
2023-04-12T03:45:38.860Z,2249.00
2023-04-12T03:46:38.912Z,2246.00
2023-04-12T03:47:38.993Z,2241.00
2023-04-12T03:48:38.938Z,2240.00
2023-04-12T03:49:38.971Z,2237.00
2023-04-12T03:50:38.996Z,2234.00
2023-04-12T03:51:39.020Z,2234.00
2023-04-12T03:52:39.099Z,2235.00
2023-04-12T03:53:39.078Z,2233.00
2023-04-12T03:54:39.109Z,2236.00
2023-04-12T03:55:39.137Z,2235.00
2023-04-12T03:56:39.170Z,2231.00
2023-04-12T03:57:39.199Z,2227.00
2023-04-12T03:58:39.238Z,2231.00
2023-04-12T03:59:39.261Z,2234.00
2023-04-12T04:00:39.281Z,2231.00
2023-04-12T04:01:39.326Z,2223.00
2023-04-12T04:02:39.418Z,2220.00
2023-04-12T04:03:39.542Z,2221.00
2023-04-12T04:04:39.408Z,2219.00
2023-04-12T04:05:39.442Z,2223.00
2023-04-12T04:06:39.480Z,2221.00
2023-04-12T04:07:39.496Z,2219.00
2023-04-12T04:08:39.529Z,2219.00
2023-04-12T04:09:39.563Z,2217.00
2023-04-12T04:10:39.596Z,2212.00
2023-04-12T04:11:39.629Z,2212.00
2023-04-12T04:12:39.659Z,2209.00
2023-04-12T04:13:39.697Z,2204.00
2023-04-12T04:14:39.723Z,2207.00
2023-04-12T04:15:39.745Z,2209.00
2023-04-12T04:16:39.797Z,2210.00
2023-04-12T04:17:39.842Z,2211.00
2023-04-12T04:18:39.861Z,2210.00
2023-04-12T04:19:39.873Z,2208.00
2023-04-12T04:20:39.915Z,2207.00
2023-04-12T04:21:39.958Z,2207.00
2023-04-12T04:22:39.966Z,2205.00
2023-04-12T04:23:40.010Z,2201.00
2023-04-12T04:24:40.061Z,2200.00
2023-04-12T04:25:40.076Z,2195.00
2023-04-12T04:26:40.096Z,2195.00
2023-04-12T04:27:40.130Z,2192.00
2023-04-12T04:28:40.166Z,2191.00
2023-04-12T04:29:40.192Z,2190.00
2023-04-12T04:30:40.222Z,2192.00
2023-04-12T04:31:40.293Z,2192.00
2023-04-12T04:32:40.299Z,2193.00
2023-04-12T04:33:40.330Z,2191.00
2023-04-12T04:34:40.364Z,2197.00
2023-04-12T04:35:40.416Z,2196.00
2023-04-12T04:36:40.417Z,2194.00
2023-04-12T04:37:40.458Z,2193.00
2023-04-12T04:38:40.513Z,2190.00
2023-04-12T04:39:40.496Z,2189.00
2023-04-12T04:40:40.534Z,2183.00
2023-04-12T04:41:40.572Z,2185.00
2023-04-12T04:42:40.590Z,2180.00
2023-04-12T04:43:40.630Z,2176.00
2023-04-12T04:44:40.661Z,2175.00
2023-04-12T04:45:40.720Z,2176.00
2023-04-12T04:46:40.709Z,2177.00
2023-04-12T04:47:40.808Z,2174.00
2023-04-12T04:48:40.768Z,2171.00
2023-04-12T04:49:40.802Z,2166.00
2023-04-12T04:50:40.821Z,2167.00
2023-04-12T04:51:40.839Z,2161.00
2023-04-12T04:52:40.889Z,2161.00
2023-04-12T04:53:40.923Z,2164.00
2023-04-12T04:54:40.934Z,2160.00
2023-04-12T04:55:40.960Z,2166.00
2023-04-12T04:56:41.003Z,2161.00
2023-04-12T04:57:41.020Z,2158.00
2023-04-12T04:58:41.045Z,2157.00
2023-04-12T04:59:41.068Z,2155.00
2023-04-12T05:00:41.097Z,2155.00
2023-04-12T05:01:41.316Z,2157.00
2023-04-12T05:02:41.351Z,2153.00
2023-04-12T05:03:41.291Z,2153.00
2023-04-12T05:04:41.196Z,2153.00
2023-04-12T05:05:41.225Z,2153.00
2023-04-12T05:06:41.247Z,2156.00
2023-04-12T05:07:41.274Z,2155.00
2023-04-12T05:08:41.301Z,2154.00
2023-04-12T05:09:41.307Z,2155.00
2023-04-12T05:10:41.382Z,2153.00
2023-04-12T05:11:41.404Z,2154.00
2023-04-12T05:12:41.404Z,2153.00
2023-04-12T05:13:41.422Z,2155.00
2023-04-12T05:14:47.097Z,2151.00
2023-04-12T05:15:42.446Z,2150.00
2023-04-12T05:16:41.499Z,2153.00
2023-04-12T05:17:41.444Z,2150.00
2023-04-12T05:18:41.431Z,2154.00
2023-04-12T05:19:41.432Z,2152.00
2023-04-12T05:20:41.419Z,2152.00
2023-04-12T05:21:41.406Z,2148.00
2023-04-12T05:22:41.399Z,2151.00
2023-04-12T05:23:41.394Z,2154.00
2023-04-12T05:24:41.391Z,2146.00
2023-04-12T05:25:41.399Z,1982.00
2023-04-12T05:26:41.430Z,2006.00
2023-04-12T05:27:41.414Z,1993.00
2023-04-12T05:28:41.412Z,2001.00
2023-04-12T05:29:41.388Z,2014.00
2023-04-12T05:30:41.423Z,2017.00
2023-04-12T05:31:41.424Z,2006.00
2023-04-12T05:32:42.210Z,1990.00
2023-04-12T05:33:41.393Z,1761.00
2023-04-12T05:34:41.442Z,1853.00
2023-04-12T05:35:42.284Z,1891.00
2023-04-12T05:36:41.383Z,1943.00
2023-04-12T05:37:41.373Z,1959.00
2023-04-12T05:38:41.368Z,1960.00
2023-04-12T05:39:41.364Z,1961.00
2023-04-12T05:40:41.366Z,1960.00
2023-04-12T05:41:41.368Z,1957.00
2023-04-12T05:42:41.375Z,1956.00
2023-04-12T05:43:41.380Z,1952.00
2023-04-12T05:44:41.400Z,1948.00
2023-04-12T05:45:41.479Z,1948.00
2023-04-12T05:46:41.581Z,1946.00
2023-04-12T05:47:41.530Z,1946.00
2023-04-12T05:48:41.485Z,1945.00
2023-04-12T05:49:41.529Z,1949.00
2023-04-12T05:50:41.583Z,1948.00
2023-04-12T05:51:41.925Z,1939.00
2023-04-12T05:52:41.577Z,1940.00
2023-04-12T05:53:41.609Z,1945.00
2023-04-12T05:54:41.664Z,1944.00
2023-04-12T05:55:41.641Z,1949.00
2023-04-12T05:56:41.661Z,1948.00
2023-04-12T05:57:41.698Z,1950.00
2023-04-12T05:58:41.704Z,1947.00
2023-04-12T05:59:41.722Z,1948.00
2023-04-12T06:00:41.754Z,1946.00
2023-04-12T06:01:41.784Z,1948.00
2023-04-12T06:02:41.921Z,1945.00
2023-04-12T06:03:42.010Z,1948.00
2023-04-12T06:04:50.254Z,1950.00
2023-04-12T06:05:42.861Z,1950.00
2023-04-12T06:06:41.822Z,1946.00
2023-04-12T06:07:41.802Z,1941.00
2023-04-12T06:08:41.802Z,1938.00
2023-04-12T06:09:41.782Z,1938.00
2023-04-12T06:10:41.783Z,1939.00
2023-04-12T06:11:41.821Z,1942.00
2023-04-12T06:12:41.753Z,1935.00
2023-04-12T06:13:41.759Z,1935.00
2023-04-12T06:14:41.750Z,1932.00
2023-04-12T06:15:41.752Z,1932.00
2023-04-12T06:16:42.314Z,1928.00
2023-04-12T06:17:41.761Z,1926.00
2023-04-12T06:18:41.732Z,1924.00
2023-04-12T06:19:41.711Z,1924.00
2023-04-12T06:20:42.284Z,1923.00
2023-04-12T06:21:41.722Z,1925.00
2023-04-12T06:22:41.690Z,1930.00
2023-04-12T06:23:41.701Z,1934.00
2023-04-12T06:24:41.707Z,1933.00
2023-04-12T06:25:41.725Z,1932.00
2023-04-12T06:26:41.745Z,1921.00
2023-04-12T06:27:41.848Z,1941.00
2023-04-12T06:28:41.754Z,1980.00
2023-04-12T06:29:42.709Z,1998.00
2023-04-12T06:30:41.743Z,2050.00
2023-04-12T06:31:41.805Z,2148.00
2023-04-12T06:32:41.735Z,2147.00
2023-04-12T06:33:41.736Z,2180.00
2023-04-12T06:34:41.740Z,2192.00
2023-04-12T06:35:41.875Z,2210.00
2023-04-12T06:36:41.808Z,2542.00
2023-04-12T06:37:41.864Z,2708.00
2023-04-12T06:38:42.851Z,2382.00
2023-04-12T06:39:41.960Z,2341.00
2023-04-12T06:40:42.015Z,2360.00
2023-04-12T06:41:42.074Z,2360.00
2023-04-12T06:42:42.109Z,2515.00
2023-04-12T06:43:42.149Z,2685.00
2023-04-12T06:44:42.196Z,2647.00
2023-04-12T06:45:42.230Z,2573.00
2023-04-12T06:46:42.293Z,2457.00
2023-04-12T06:47:42.406Z,2452.00
2023-04-12T06:48:42.367Z,2467.00
2023-04-12T06:49:42.399Z,2468.00
2023-04-12T06:50:42.413Z,2482.00
2023-04-12T06:51:42.462Z,2511.00
2023-04-12T06:52:42.489Z,2550.00
2023-04-12T06:53:42.524Z,2574.00
2023-04-12T06:54:42.641Z,2583.00
2023-04-12T06:55:42.566Z,2580.00
2023-04-12T06:56:42.610Z,2566.00
2023-04-12T06:57:42.648Z,2576.00
2023-04-12T06:58:42.655Z,2597.00
2023-04-12T06:59:42.696Z,2619.00
2023-04-12T07:00:42.732Z,2648.00
2023-04-12T07:01:43.580Z,2670.00
2023-04-12T07:02:42.946Z,2680.00
2023-04-12T07:03:43.050Z,2697.00
2023-04-12T07:04:42.840Z,2723.00
2023-04-12T07:05:42.882Z,2770.00
2023-04-12T07:06:42.902Z,2773.00
2023-04-12T07:07:42.940Z,2780.00
2023-04-12T07:08:42.945Z,2795.00
2023-04-12T07:09:42.972Z,2803.00
2023-04-12T07:10:42.991Z,2935.00
2023-04-12T07:11:43.008Z,2927.00
2023-04-12T07:12:43.021Z,2926.00
2023-04-12T07:13:43.044Z,2923.00
2023-04-12T07:14:44.630Z,2931.00
2023-04-12T07:15:43.069Z,2306.00
2023-04-12T07:16:43.128Z,1796.00
2023-04-12T07:17:43.165Z,1845.00
2023-04-12T07:18:43.170Z,1583.00
2023-04-12T07:19:43.212Z,1278.00
2023-04-12T07:20:43.225Z,1012.00
2023-04-12T07:21:43.256Z,813.00
2023-04-12T07:22:43.304Z,753.00
2023-04-12T07:23:43.373Z,775.00
2023-04-12T07:24:43.453Z,766.00
2023-04-12T07:25:43.530Z,899.00
2023-04-12T07:26:43.583Z,917.00
2023-04-12T07:27:43.668Z,1055.00
2023-04-12T07:28:43.691Z,1023.00
2023-04-12T07:29:43.705Z,1143.00
2023-04-12T07:30:43.729Z,1178.00
2023-04-12T07:31:43.725Z,1227.00
2023-04-12T07:32:43.767Z,1316.00
2023-04-12T07:33:43.825Z,1443.00
2023-04-12T07:34:43.878Z,1431.00
2023-04-12T07:35:43.890Z,1446.00
2023-04-12T07:36:43.904Z,1531.00
2023-04-12T07:37:43.938Z,1545.00
2023-04-12T07:38:44.007Z,1557.00
2023-04-12T07:39:44.043Z,1595.00
2023-04-12T07:40:44.067Z,1672.00
2023-04-12T07:41:44.078Z,1711.00
2023-04-12T07:42:44.109Z,1711.00
2023-04-12T07:43:44.133Z,1733.00
2023-04-12T07:44:44.161Z,1751.00
2023-04-12T07:45:44.245Z,1822.00
2023-04-12T07:46:44.195Z,1836.00
2023-04-12T07:47:44.301Z,1835.00
2023-04-12T07:48:44.224Z,1858.00
2023-04-12T07:49:44.222Z,1881.00
2023-04-12T07:50:44.215Z,1972.00
2023-04-12T07:51:44.214Z,2013.00
2023-04-12T07:52:44.245Z,2051.00
2023-04-12T07:53:44.222Z,2054.00
2023-04-12T07:54:44.221Z,2068.00
2023-04-12T07:55:44.234Z,2149.00
2023-04-12T07:56:44.212Z,2145.00
2023-04-12T07:57:44.249Z,2148.00
2023-04-12T07:58:44.203Z,2194.00
2023-04-12T07:59:44.190Z,2228.00
2023-04-12T08:00:44.184Z,2246.00
2023-04-12T08:01:44.197Z,2267.00
2023-04-12T08:02:44.294Z,2289.00
2023-04-12T08:03:44.264Z,2311.00
2023-04-12T08:04:44.161Z,2369.00
2023-04-12T08:05:44.166Z,2414.00
2023-04-12T08:06:44.101Z,2423.00
2023-04-12T08:07:44.091Z,2439.00
2023-04-12T08:08:44.075Z,2456.00
2023-04-12T08:09:44.048Z,2483.00
2023-04-12T08:10:44.034Z,2516.00
2023-04-12T08:11:44.012Z,2520.00
2023-04-12T08:12:44.005Z,2526.00
2023-04-12T08:13:44.070Z,2567.00
2023-04-12T08:14:44.407Z,2565.00
2023-04-12T08:15:43.991Z,2476.00
2023-04-12T08:16:43.915Z,2487.00
2023-04-12T08:17:44.002Z,2184.00
2023-04-12T08:18:43.889Z,2321.00
2023-04-12T08:19:43.854Z,2356.00
2023-04-12T08:20:43.859Z,2344.00
2023-04-12T08:21:43.790Z,2267.00
2023-04-12T08:22:43.767Z,2256.00
2023-04-12T08:23:43.740Z,2228.00
2023-04-12T08:24:43.804Z,2249.00
2023-04-12T08:25:43.697Z,1973.00
2023-04-12T08:26:43.645Z,2000.00
2023-04-12T08:27:43.626Z,2123.00
2023-04-12T08:28:43.592Z,2220.00
2023-04-12T08:29:43.647Z,2235.00
2023-04-12T08:30:43.542Z,2251.00
2023-04-12T08:31:43.574Z,2351.00
2023-04-12T08:32:43.595Z,2364.00
2023-04-12T08:33:43.473Z,2378.00
2023-04-12T08:34:44.869Z,2387.00
2023-04-12T08:35:43.694Z,2400.00
2023-04-12T08:36:43.591Z,2421.00
2023-04-12T08:37:43.576Z,2503.00
2023-04-12T08:38:46.252Z,2521.00
2023-04-12T08:39:43.504Z,2536.00
2023-04-12T08:40:43.479Z,2551.00
2023-04-12T08:41:43.453Z,2609.00
2023-04-12T08:42:43.399Z,2624.00
2023-04-12T08:43:43.371Z,2699.00
2023-04-12T08:44:43.335Z,2717.00
2023-04-12T08:45:43.305Z,2712.00
2023-04-12T08:46:43.294Z,2723.00
2023-04-12T08:47:43.316Z,2846.00
2023-04-12T08:48:43.192Z,2840.00
2023-04-12T08:49:43.158Z,2841.00
2023-04-12T08:50:43.121Z,2887.00
2023-04-12T08:51:43.082Z,3019.00
2023-04-12T08:52:43.063Z,3001.00
2023-04-12T08:53:43.056Z,3013.00
2023-04-12T08:54:42.984Z,3067.00
2023-04-12T08:55:42.938Z,3101.00
2023-04-12T08:56:42.906Z,3221.00
2023-04-12T08:57:42.863Z,3136.00
2023-04-12T08:58:42.828Z,3182.00
2023-04-12T08:59:42.760Z,3227.00
2023-04-12T09:00:42.720Z,3251.00
2023-04-12T09:01:42.800Z,3470.00
2023-04-12T09:02:42.888Z,3370.00
2023-04-12T09:03:42.705Z,3358.00
2023-04-12T09:04:42.753Z,3361.00
2023-04-12T09:05:42.540Z,3374.00
2023-04-12T09:06:42.469Z,3406.00
2023-04-12T09:09:01.520Z,3607.00
2023-04-12T09:10:01.455Z,3600.00
2023-04-12T09:11:01.431Z,3597.00
2023-04-12T09:12:01.412Z,3597.00
2023-04-12T09:13:01.453Z,3623.00
2023-04-12T09:14:08.406Z,3821.00
2023-04-12T09:15:01.389Z,3738.00
2023-04-12T09:16:01.384Z,3739.00
2023-04-12T09:17:01.398Z,3653.00
2023-04-12T09:18:01.380Z,3649.00
2023-04-12T09:19:01.370Z,3658.00
2023-04-12T09:20:01.348Z,3641.00
2023-04-12T09:21:01.342Z,3606.00
2023-04-12T09:22:01.337Z,3567.00
2023-04-12T09:23:01.337Z,3558.00
2023-04-12T09:24:01.332Z,3554.00
2023-04-12T09:25:01.317Z,3557.00
2023-04-12T09:26:01.310Z,3561.00
2023-04-12T09:27:01.303Z,3559.00
2023-04-12T09:28:01.291Z,3552.00
2023-04-12T09:29:01.320Z,3551.00
2023-04-12T09:30:01.319Z,3547.00
2023-04-12T09:31:01.345Z,3547.00
2023-04-12T09:32:01.320Z,3535.00
2023-04-12T09:33:01.341Z,3528.00
2023-04-12T09:34:01.300Z,3524.00
2023-04-12T09:35:01.305Z,3525.00
2023-04-12T09:36:01.369Z,3526.00
2023-04-12T09:37:02.157Z,3525.00
2023-04-12T09:38:01.278Z,3516.00
2023-04-12T09:39:01.285Z,3512.00
2023-04-12T09:40:01.286Z,3510.00
2023-04-12T09:41:01.321Z,3510.00
2023-04-12T09:42:01.339Z,3504.00
2023-04-12T09:43:01.410Z,3499.00
2023-04-12T09:44:01.464Z,3492.00
2023-04-12T09:45:01.686Z,3491.00
2023-04-12T09:46:01.614Z,3493.00
2023-04-12T09:47:01.630Z,3486.00
2023-04-12T09:48:01.773Z,3485.00
2023-04-12T09:49:01.740Z,3488.00
2023-04-12T09:50:01.752Z,3489.00
2023-04-12T09:51:01.769Z,3486.00
2023-04-12T09:52:01.898Z,3476.00
2023-04-12T09:53:01.917Z,3473.00
2023-04-12T09:54:01.956Z,3471.00
2023-04-12T09:55:02.003Z,3469.00
2023-04-12T09:56:02.011Z,3469.00
2023-04-12T09:57:02.048Z,3467.00
2023-04-12T09:58:02.107Z,3463.00
2023-04-12T09:59:02.188Z,3457.00
2023-04-12T10:00:02.181Z,3461.00
2023-04-12T10:01:02.230Z,3456.00
2023-04-12T10:02:02.333Z,3452.00
2023-04-12T10:03:02.413Z,3437.00
2023-04-12T10:04:02.996Z,3433.00
2023-04-12T10:05:02.471Z,3425.00
2023-04-12T10:06:02.407Z,3423.00
2023-04-12T10:07:02.451Z,3420.00
2023-04-12T10:08:02.495Z,3415.00
2023-04-12T10:09:02.531Z,3407.00
2023-04-12T10:10:02.613Z,3401.00
2023-04-12T10:11:02.691Z,3403.00
2023-04-12T10:12:02.732Z,3403.00
2023-04-12T10:13:02.829Z,3402.00
2023-04-12T10:14:02.865Z,3404.00
2023-04-12T10:15:02.940Z,3406.00
2023-04-12T10:16:03.063Z,3412.00
2023-04-12T10:17:03.099Z,3411.00
2023-04-12T10:18:03.231Z,3416.00
2023-04-12T10:19:03.246Z,3415.00
2023-04-12T10:20:03.352Z,3414.00
2023-04-12T10:21:03.428Z,3411.00
2023-04-12T10:22:03.636Z,3407.00
2023-04-12T10:23:03.549Z,3403.00
2023-04-12T10:24:03.574Z,3399.00
2023-04-12T10:25:03.629Z,3391.00
2023-04-12T10:26:03.679Z,3387.00
2023-04-12T10:27:03.733Z,3384.00
2023-04-12T10:28:03.820Z,3376.00
2023-04-12T10:29:03.886Z,3378.00
2023-04-12T10:30:03.933Z,3374.00
2023-04-12T10:31:04.046Z,3375.00
2023-04-12T10:32:04.078Z,3375.00
2023-04-12T10:33:04.194Z,3377.00
2023-04-12T10:34:04.189Z,3377.00
2023-04-12T10:35:04.264Z,3376.00
2023-04-12T10:36:04.525Z,3373.00
2023-04-12T10:37:04.446Z,3369.00
2023-04-12T10:38:04.592Z,3374.00
2023-04-12T10:39:04.579Z,3369.00
2023-04-12T10:40:04.676Z,3368.00
2023-04-12T10:41:04.726Z,3360.00
2023-04-12T10:42:04.799Z,3354.00
2023-04-12T10:43:04.906Z,3352.00
2023-04-12T10:44:04.952Z,3355.00
2023-04-12T10:45:05.012Z,3355.00
2023-04-12T10:46:05.158Z,3362.00
2023-04-12T10:47:05.721Z,3361.00
2023-04-12T10:48:05.224Z,3350.00
2023-04-12T10:49:05.275Z,3348.00
2023-04-12T10:50:06.098Z,3350.00
2023-04-12T10:51:05.411Z,3349.00
2023-04-12T10:52:05.520Z,3348.00
2023-04-12T10:53:05.597Z,3347.00
2023-04-12T10:54:05.622Z,3342.00
2023-04-12T10:55:05.693Z,3342.00
2023-04-12T10:56:05.757Z,3337.00
2023-04-12T10:57:05.830Z,3331.00
2023-04-12T10:58:05.900Z,3326.00
2023-04-12T10:59:06.077Z,3326.00
2023-04-12T11:00:06.043Z,3325.00
2023-04-12T11:01:06.279Z,3329.00
2023-04-12T11:02:06.300Z,3327.00
2023-04-12T11:03:06.356Z,3322.00
2023-04-12T11:04:06.553Z,3320.00
2023-04-12T11:05:06.466Z,3314.00
2023-04-12T11:06:23.825Z,3310.00
2023-04-12T11:07:07.463Z,3304.00
2023-04-12T11:08:06.468Z,3303.00
2023-04-12T11:09:06.530Z,3304.00
2023-04-12T11:10:06.471Z,3302.00
2023-04-12T11:11:06.502Z,3301.00
2023-04-12T11:12:08.186Z,3292.00
2023-04-12T11:13:06.475Z,3293.00
2023-04-12T11:14:06.494Z,3290.00
2023-04-12T11:15:06.484Z,3286.00
2023-04-12T11:16:06.572Z,3280.00
2023-04-12T11:17:06.573Z,3274.00
2023-04-12T11:18:06.523Z,3273.00
2023-04-12T11:19:06.537Z,3276.00
2023-04-12T11:20:06.490Z,3275.00
2023-04-12T11:21:06.577Z,3268.00
2023-04-12T11:22:06.507Z,3259.00
2023-04-12T11:23:07.512Z,3259.00
2023-04-12T11:24:06.530Z,3256.00
2023-04-12T11:25:06.497Z,3257.00
2023-04-12T11:26:06.495Z,3257.00
2023-04-12T11:27:06.496Z,3249.00
2023-04-12T11:28:17.308Z,3252.00
2023-04-12T11:29:08.110Z,3246.00
2023-04-12T11:30:06.495Z,3251.00
2023-04-12T11:31:06.594Z,3245.00
2023-04-12T11:32:06.576Z,3241.00
2023-04-12T11:33:06.538Z,3235.00
2023-04-12T11:34:06.497Z,3231.00
2023-04-12T11:35:06.487Z,3229.00
2023-04-12T11:36:06.488Z,3224.00
2023-04-12T11:37:06.480Z,3217.00
2023-04-12T11:38:06.468Z,3211.00
2023-04-12T11:39:06.494Z,3215.00
2023-04-12T11:40:06.537Z,3215.00
2023-04-12T11:41:06.581Z,3210.00
2023-04-12T11:42:06.642Z,3202.00
2023-04-12T11:43:06.739Z,3195.00
2023-04-12T11:44:06.693Z,3197.00
2023-04-12T11:45:14.344Z,3194.00
2023-04-12T11:46:07.825Z,3189.00
2023-04-12T11:47:06.694Z,3184.00
2023-04-12T11:48:06.782Z,3183.00
2023-04-12T11:49:06.707Z,3180.00
2023-04-12T11:50:06.702Z,3182.00
2023-04-12T11:51:11.345Z,3179.00
2023-04-12T11:52:07.713Z,3176.00
2023-04-12T11:53:06.700Z,3174.00
2023-04-12T11:54:06.690Z,3173.00
2023-04-12T11:55:08.627Z,3173.00
2023-04-12T11:56:06.691Z,3160.00
2023-04-12T11:57:06.707Z,3158.00
2023-04-12T11:58:06.747Z,3160.00
2023-04-12T11:59:06.706Z,3153.00
2023-04-12T12:00:07.011Z,3149.00
2023-04-12T12:01:06.691Z,3147.00
2023-04-12T12:02:21.223Z,3148.00
2023-04-12T12:03:08.846Z,3154.00
2023-04-12T12:04:07.006Z,3150.00
2023-04-12T12:05:07.890Z,3142.00
2023-04-12T12:06:06.990Z,3141.00
2023-04-12T12:07:07.003Z,3133.00